createdAt,value
2022-10-03T00:02:45.372Z,8.55
2022-10-03T00:05:35.333Z,16.02
2022-10-03T00:08:17.411Z,14.70
2022-10-03T00:11:03.703Z,12.00
2022-10-03T00:13:43.610Z,11.20
2022-10-03T00:16:19.463Z,6.97
2022-10-03T00:19:02.025Z,9.18
2022-10-03T00:21:59.073Z,7.57
2022-10-03T00:24:44.180Z,9.23
2022-10-03T00:27:28.170Z,12.60
2022-10-03T00:30:16.270Z,6.45
2022-10-03T00:36:02.465Z,9.52
2022-10-03T00:39:18.937Z,10.07
2022-10-03T00:42:16.082Z,15.13
2022-10-03T00:49:05.777Z,17.23
2022-10-03T00:51:52.592Z,15.55
2022-10-03T00:54:46.998Z,18.77
2022-10-03T00:57:38.236Z,13.40
2022-10-03T01:00:21.449Z,7.50
2022-10-03T01:03:12.157Z,12.95
2022-10-03T01:06:00.612Z,13.90
2022-10-03T01:09:05.465Z,9.90
2022-10-03T01:11:55.268Z,16.83
2022-10-03T01:14:49.193Z,16.50
2022-10-03T01:17:34.521Z,14.50
2022-10-03T01:20:28.613Z,13.73
2022-10-03T01:23:35.161Z,10.30
2022-10-03T01:26:20.729Z,17.75
2022-10-03T01:29:16.799Z,11.35
2022-10-03T01:31:54.771Z,17.05
2022-10-03T01:34:32.683Z,14.23
2022-10-03T01:37:11.637Z,15.90
2022-10-03T01:39:51.858Z,12.73
2022-10-03T01:42:39.932Z,19.65
2022-10-03T01:47:51.841Z,20.02
2022-10-03T01:50:32.630Z,35.17
2022-10-03T01:53:08.620Z,20.42
2022-10-03T01:55:52.353Z,22.48
2022-10-03T01:58:31.392Z,21.67
2022-10-03T02:01:10.970Z,12.50
2022-10-03T02:03:49.314Z,19.90
2022-10-03T02:06:27.904Z,17.40
2022-10-03T02:09:06.193Z,19.98
2022-10-03T02:11:41.611Z,15.38
2022-10-03T02:14:24.437Z,22.85
2022-10-03T02:17:02.766Z,20.38
2022-10-03T02:19:42.633Z,19.58
2022-10-03T02:22:17.198Z,16.73
2022-10-03T02:24:58.476Z,18.58
2022-10-03T02:27:52.874Z,15.02
2022-10-03T02:30:27.650Z,14.75
2022-10-03T02:33:44.622Z,16.38
2022-10-03T02:37:04.900Z,12.65
2022-10-03T02:40:28.606Z,10.18
2022-10-03T02:43:43.485Z,8.90
2022-10-03T02:46:46.440Z,14.57
2022-10-03T02:50:01.300Z,10.75
2022-10-03T02:53:26.166Z,10.93
2022-10-03T02:56:48.230Z,18.95
2022-10-03T02:59:51.876Z,17.65
2022-10-03T03:03:39.125Z,14.70
2022-10-03T03:06:39.157Z,17.05
2022-10-03T03:09:53.643Z,17.42
2022-10-03T03:13:11.296Z,19.67
2022-10-03T03:16:16.046Z,17.63
2022-10-03T03:18:56.025Z,14.07
2022-10-03T03:21:32.685Z,10.88
2022-10-03T03:24:37.739Z,12.95
2022-10-03T03:27:28.679Z,11.25
2022-10-03T03:30:07.094Z,13.50
2022-10-03T03:32:57.024Z,8.90
2022-10-03T03:35:36.933Z,11.20
2022-10-03T03:38:21.830Z,12.13
2022-10-03T03:41:10.516Z,11.10
2022-10-03T03:43:57.256Z,12.18
2022-10-03T03:46:41.756Z,24.75
2022-10-03T03:49:32.349Z,23.15
2022-10-03T03:52:26.888Z,20.10
2022-10-03T03:55:18.664Z,15.88
2022-10-03T03:58:10.561Z,20.00
2022-10-03T04:01:02.076Z,14.80
2022-10-03T04:03:51.254Z,15.30
2022-10-03T04:06:46.284Z,17.55
2022-10-03T04:09:46.404Z,16.58
2022-10-03T04:12:37.125Z,7.78
2022-10-03T04:15:35.649Z,10.05
2022-10-03T04:19:00.178Z,19.05
2022-10-03T04:21:58.168Z,9.98
2022-10-03T04:25:16.167Z,12.60
2022-10-03T04:28:34.558Z,11.02
2022-10-03T04:31:26.141Z,22.98
2022-10-03T04:34:15.344Z,19.98
2022-10-03T04:37:20.250Z,12.20
2022-10-03T04:40:04.420Z,13.70
2022-10-03T04:42:58.469Z,10.32
2022-10-03T04:45:49.368Z,20.17
2022-10-03T04:48:30.689Z,22.63
2022-10-03T04:51:09.425Z,18.55
2022-10-03T04:53:53.876Z,14.75
2022-10-03T04:56:45.594Z,13.63
2022-10-03T04:59:42.602Z,12.88
2022-10-03T05:02:27.019Z,15.38
2022-10-03T05:05:29.201Z,10.82
2022-10-03T05:08:18.236Z,14.95
2022-10-03T05:11:08.307Z,11.32
2022-10-03T05:13:50.523Z,11.68
2022-10-03T05:16:36.281Z,11.32
2022-10-03T05:19:45.407Z,13.10
2022-10-03T05:22:28.303Z,12.95
2022-10-03T05:25:11.917Z,15.00
2022-10-03T05:27:51.934Z,13.38
2022-10-03T05:30:36.339Z,13.82
2022-10-03T05:33:14.465Z,12.68
2022-10-03T05:36:08.150Z,12.30
2022-10-03T05:39:18.865Z,11.50
2022-10-03T05:42:17.910Z,7.15
2022-10-03T05:44:49.487Z,9.98
2022-10-03T05:47:52.463Z,14.13
2022-10-03T05:50:43.659Z,16.05
2022-10-03T05:54:02.042Z,16.10
2022-10-03T05:56:58.168Z,13.63
2022-10-03T05:59:55.826Z,19.92
2022-10-03T06:03:19.141Z,19.98
2022-10-03T06:06:08.212Z,24.50
2022-10-03T06:09:36.231Z,21.63
2022-10-03T06:12:14.390Z,17.73
2022-10-03T06:15:19.394Z,17.35
2022-10-03T06:18:11.325Z,21.45
2022-10-03T06:21:12.788Z,15.85
2022-10-03T06:24:27.110Z,15.45
2022-10-03T06:27:42.933Z,13.82
2022-10-03T06:30:24.112Z,17.58
2022-10-03T06:33:52.176Z,12.38
2022-10-03T06:36:48.884Z,11.93
2022-10-03T06:40:27.902Z,14.38
2022-10-03T06:43:32.019Z,14.13
2022-10-03T06:46:45.595Z,14.50
2022-10-03T06:50:00.269Z,11.70
2022-10-03T06:52:55.200Z,9.02
2022-10-03T06:56:02.067Z,7.90
2022-10-03T07:02:12.713Z,8.50
2022-10-03T07:05:45.077Z,11.88
2022-10-03T07:08:54.273Z,17.05
2022-10-03T07:15:15.055Z,13.00
2022-10-03T07:18:31.063Z,6.57
2022-10-03T07:21:36.975Z,6.40
2022-10-03T07:24:40.516Z,6.80
2022-10-03T07:27:50.092Z,5.50
2022-10-03T07:30:22.399Z,7.50
2022-10-03T07:33:50.112Z,7.93
2022-10-03T07:36:58.624Z,6.60
2022-10-03T07:40:12.316Z,5.35
2022-10-03T07:43:07.657Z,7.03
2022-10-03T07:45:41.117Z,10.40
2022-10-03T07:49:04.543Z,9.70
2022-10-03T07:51:44.781Z,12.23
2022-10-03T07:54:44.781Z,13.07
2022-10-03T07:57:55.012Z,7.82
2022-10-03T08:00:27.503Z,9.27
2022-10-03T08:04:04.070Z,6.85
2022-10-03T08:06:43.425Z,7.60
2022-10-03T08:09:54.377Z,8.55
2022-10-03T08:12:46.488Z,3.42
2022-10-03T08:15:28.692Z,9.40
2022-10-03T08:18:42.252Z,4.78
2022-10-03T08:21:19.945Z,6.97
2022-10-03T08:24:23.713Z,7.47
2022-10-03T08:27:24.669Z,4.22
2022-10-03T08:30:23.523Z,10.18
2022-10-03T08:33:25.795Z,8.80
2022-10-03T08:36:42.668Z,8.13
2022-10-03T08:39:27.614Z,5.05
2022-10-03T08:42:32.260Z,6.85
2022-10-03T08:45:51.059Z,5.18
2022-10-03T08:49:03.910Z,5.90
2022-10-03T08:52:26.961Z,7.13
2022-10-03T08:55:33.044Z,2.70
2022-10-03T08:58:36.183Z,4.57
2022-10-03T09:01:30.658Z,1.88
2022-10-03T09:05:00.637Z,4.65
2022-10-03T09:08:13.521Z,3.15
2022-10-03T09:11:24.162Z,5.75
2022-10-03T09:14:37.028Z,5.80
2022-10-03T09:17:36.132Z,3.50
2022-10-03T09:20:38.718Z,3.97
2022-10-03T09:23:55.995Z,1.70
2022-10-03T09:27:17.361Z,6.63
2022-10-03T09:30:21.187Z,5.65
2022-10-03T09:33:39.225Z,4.22
2022-10-03T09:36:49.988Z,5.38
2022-10-03T09:40:17.216Z,4.32
2022-10-03T09:43:13.042Z,2.17
2022-10-03T09:46:46.552Z,3.03
2022-10-03T09:49:47.233Z,6.25
2022-10-03T09:52:35.498Z,6.65
2022-10-03T09:55:34.235Z,2.85
2022-10-03T09:58:31.981Z,5.57
2022-10-03T10:01:19.401Z,7.22
2022-10-03T10:04:54.957Z,4.25
2022-10-03T10:08:09.666Z,3.15
2022-10-03T10:11:23.277Z,4.72
2022-10-03T10:14:40.848Z,4.72
2022-10-03T10:17:59.001Z,3.38
2022-10-03T10:21:28.796Z,2.05
2022-10-03T10:24:22.119Z,4.55
2022-10-03T10:27:37.226Z,2.78
2022-10-03T10:30:21.805Z,5.10
2022-10-03T10:33:43.482Z,3.85
2022-10-03T10:36:57.806Z,2.97
2022-10-03T10:39:58.459Z,6.28
2022-10-03T10:43:52.020Z,2.65
2022-10-03T10:47:11.182Z,4.43
2022-10-03T10:50:56.177Z,3.03
2022-10-03T10:54:25.994Z,1.40
2022-10-03T10:57:42.163Z,1.70
2022-10-03T11:00:27.487Z,2.75
2022-10-03T11:03:58.935Z,4.30
2022-10-03T11:07:08.075Z,4.00
2022-10-03T11:13:49.625Z,2.33
2022-10-03T11:17:23.587Z,3.88
2022-10-03T11:20:51.229Z,2.45
2022-10-03T11:24:00.783Z,3.10
2022-10-03T11:27:32.747Z,2.00
2022-10-03T11:30:54.154Z,2.38
2022-10-03T11:34:12.271Z,3.90
2022-10-03T11:37:12.192Z,2.78
2022-10-03T11:39:50.317Z,3.10
2022-10-03T11:42:39.889Z,53.60
2022-10-03T11:45:24.696Z,11.07
2022-10-03T11:48:06.526Z,4.90
2022-10-03T11:50:45.990Z,4.05
2022-10-03T11:53:27.519Z,4.38
2022-10-03T11:56:20.124Z,6.05
2022-10-03T11:59:08.405Z,6.03
2022-10-03T12:01:58.550Z,3.95
2022-10-03T12:04:41.005Z,4.10
2022-10-03T12:07:43.272Z,3.95
2022-10-03T12:10:34.125Z,3.13
2022-10-03T12:13:15.177Z,3.25
2022-10-03T12:15:51.067Z,3.03
2022-10-03T12:18:34.674Z,3.17
2022-10-03T12:21:18.478Z,2.78
2022-10-03T12:24:05.155Z,4.33
2022-10-03T12:26:49.568Z,1.92
2022-10-03T12:29:22.421Z,4.45
2022-10-03T12:32:11.151Z,3.97
2022-10-03T12:34:44.944Z,2.05
2022-10-03T12:37:36.769Z,3.28
2022-10-03T12:40:18.907Z,3.92
2022-10-03T12:43:02.880Z,3.08
2022-10-03T12:45:37.431Z,2.53
2022-10-03T12:48:35.037Z,2.38
2022-10-03T12:51:21.201Z,3.30
2022-10-03T12:54:03.591Z,5.88
2022-10-03T12:56:49.177Z,1.90
2022-10-03T12:59:36.067Z,6.10
2022-10-03T13:02:32.767Z,3.08
2022-10-03T13:05:33.365Z,4.25
2022-10-03T13:08:08.810Z,2.90
2022-10-03T13:10:42.860Z,2.03
2022-10-03T13:13:30.560Z,3.67
2022-10-03T13:16:25.029Z,7.75
2022-10-03T13:19:05.686Z,12.38
2022-10-03T13:21:53.301Z,4.72
2022-10-03T13:24:33.597Z,3.60
2022-10-03T13:27:25.650Z,4.50
2022-10-03T13:30:06.816Z,2.70
2022-10-03T13:32:40.856Z,5.78
2022-10-03T13:35:45.502Z,3.63
2022-10-03T13:39:05.351Z,2.03
2022-10-03T13:42:01.181Z,2.10
2022-10-03T13:44:39.984Z,2.30
2022-10-03T13:47:30.087Z,2.70
2022-10-03T13:50:02.533Z,3.53
2022-10-03T13:52:40.335Z,4.93
2022-10-03T13:55:21.264Z,2.67
2022-10-03T13:58:11.666Z,3.95
2022-10-03T14:01:01.434Z,5.20
2022-10-03T14:03:43.293Z,7.53
2022-10-03T14:06:24.273Z,4.35
2022-10-03T14:10:09.770Z,1.63
2022-10-03T14:12:58.063Z,5.15
2022-10-03T14:15:38.746Z,4.93
2022-10-03T14:18:33.229Z,2.75
2022-10-03T14:21:56.749Z,1.88
2022-10-03T14:24:44.075Z,3.42
2022-10-03T14:27:42.316Z,5.60
2022-10-03T14:30:16.931Z,4.07
2022-10-03T14:33:01.118Z,5.50
2022-10-03T14:35:40.471Z,5.75
2022-10-03T14:38:25.009Z,8.05
2022-10-03T14:41:05.326Z,3.90
2022-10-03T14:43:45.967Z,3.42
2022-10-03T14:46:20.692Z,6.95
2022-10-03T14:48:53.961Z,3.08
2022-10-03T14:51:28.000Z,2.28
2022-10-03T14:54:02.886Z,2.45
2022-10-03T14:56:41.357Z,1.45
2022-10-03T14:59:19.692Z,4.32
2022-10-03T15:01:51.830Z,6.85
2022-10-03T15:04:31.419Z,6.60
2022-10-03T15:07:03.039Z,6.20
2022-10-03T15:09:44.393Z,3.05
2022-10-03T15:12:20.952Z,5.82
2022-10-03T15:15:02.363Z,3.30
2022-10-03T15:17:35.111Z,2.10
2022-10-03T15:20:08.969Z,5.53
2022-10-03T15:22:42.344Z,3.95
2022-10-03T15:25:18.829Z,4.38
2022-10-03T15:27:53.567Z,2.95
2022-10-03T15:30:30.843Z,3.78
2022-10-03T15:33:12.773Z,3.22
2022-10-03T15:35:46.233Z,4.50
2022-10-03T15:38:18.617Z,4.68
2022-10-03T15:41:07.294Z,3.72
2022-10-03T15:43:42.752Z,5.63
2022-10-03T15:46:22.829Z,5.70
2022-10-03T15:48:55.409Z,3.53
2022-10-03T15:51:28.299Z,5.97
2022-10-03T15:54:02.078Z,5.20
2022-10-03T15:56:39.408Z,2.22
2022-10-03T16:01:47.273Z,4.57
2022-10-03T16:04:21.976Z,2.45
2022-10-03T16:07:03.261Z,6.25
2022-10-03T16:09:51.299Z,3.42
2022-10-03T16:15:27.237Z,6.00
2022-10-03T16:18:00.674Z,8.35
2022-10-03T16:20:36.032Z,10.35
2022-10-03T16:23:18.523Z,5.35
2022-10-03T16:25:51.664Z,10.13
2022-10-03T16:28:26.855Z,7.63
2022-10-03T16:31:03.166Z,5.22
2022-10-03T16:33:55.846Z,10.43
2022-10-03T16:36:27.669Z,8.52
2022-10-03T16:39:00.475Z,6.03
2022-10-03T16:41:32.469Z,7.10
2022-10-03T16:44:06.452Z,9.10
2022-10-03T16:46:39.961Z,9.45
2022-10-03T16:49:30.821Z,9.38
2022-10-03T16:52:07.189Z,7.78
2022-10-03T16:54:38.908Z,8.75
2022-10-03T16:57:15.802Z,6.90
2022-10-03T16:59:52.108Z,5.32
2022-10-03T17:02:25.484Z,5.75
2022-10-03T17:05:04.074Z,7.78
2022-10-03T17:07:41.486Z,7.38
2022-10-03T17:10:30.177Z,7.70
2022-10-03T17:13:03.815Z,10.68
2022-10-03T17:15:43.317Z,10.52
2022-10-03T17:18:25.710Z,4.57
2022-10-03T17:21:04.555Z,10.75
2022-10-03T17:23:39.642Z,8.65
2022-10-03T17:26:14.975Z,17.02
2022-10-03T17:28:54.731Z,10.48
2022-10-03T17:31:34.151Z,14.80
2022-10-03T17:34:17.028Z,8.15
2022-10-03T17:37:26.834Z,10.20
2022-10-03T17:40:04.122Z,13.63
2022-10-03T17:42:42.970Z,8.05
2022-10-03T17:45:35.172Z,12.45
2022-10-03T17:48:18.225Z,7.40
2022-10-03T17:51:02.754Z,7.75
2022-10-03T17:53:37.754Z,7.35
2022-10-03T17:56:13.644Z,8.65
2022-10-03T17:58:47.765Z,9.63
2022-10-03T18:01:21.102Z,10.73
2022-10-03T18:03:58.207Z,10.57
2022-10-03T18:06:50.561Z,8.85
2022-10-03T18:09:32.741Z,10.40
2022-10-03T18:12:16.552Z,10.63
2022-10-03T18:15:18.937Z,10.23
2022-10-03T18:18:05.428Z,11.80
2022-10-03T18:20:49.237Z,15.82
2022-10-03T18:23:53.116Z,10.75
2022-10-03T18:26:28.551Z,12.98
2022-10-03T18:29:16.145Z,8.98
2022-10-03T18:31:53.145Z,13.77
2022-10-03T18:34:31.145Z,13.63
2022-10-03T18:37:34.073Z,16.58
2022-10-03T18:40:13.593Z,13.13
2022-10-03T18:42:50.557Z,20.52
2022-10-03T18:45:23.151Z,22.83
2022-10-03T18:48:00.362Z,18.80
2022-10-03T18:50:40.692Z,16.35
2022-10-03T18:53:27.183Z,15.95
2022-10-03T18:56:05.027Z,14.60
2022-10-03T18:58:43.820Z,17.63
2022-10-03T19:01:20.379Z,16.58
2022-10-03T19:03:58.258Z,13.57
2022-10-03T19:06:33.522Z,19.10
2022-10-03T19:09:16.291Z,15.27
2022-10-03T19:11:56.670Z,15.23
2022-10-03T19:14:35.115Z,16.50
2022-10-03T19:17:31.049Z,22.15
2022-10-03T19:20:12.878Z,14.30
2022-10-03T19:22:59.443Z,16.30
2022-10-03T19:25:31.307Z,30.13
2022-10-03T19:28:06.417Z,16.05
2022-10-03T19:30:37.328Z,25.75
2022-10-03T19:33:10.354Z,20.05
2022-10-03T19:35:46.779Z,18.55
2022-10-03T19:38:19.456Z,19.67
2022-10-03T19:41:00.199Z,18.05
2022-10-03T19:43:43.136Z,12.85
2022-10-03T19:47:06.506Z,15.68
2022-10-03T19:49:49.728Z,20.88
2022-10-03T19:52:25.892Z,21.20
2022-10-03T19:55:01.714Z,18.65
2022-10-03T19:57:47.148Z,19.23
2022-10-03T20:00:28.004Z,21.92
2022-10-03T20:03:13.540Z,20.35
2022-10-03T20:05:52.016Z,15.68
2022-10-03T20:08:26.975Z,20.27
2022-10-03T20:11:21.250Z,20.70
2022-10-03T20:13:52.196Z,26.15
2022-10-03T20:16:25.596Z,20.95
2022-10-03T20:19:05.073Z,22.35
2022-10-03T20:21:34.667Z,20.33
2022-10-03T20:24:12.528Z,24.40
2022-10-03T20:26:51.521Z,25.88
2022-10-03T20:29:30.380Z,23.27
2022-10-03T20:32:01.889Z,28.55
2022-10-03T20:34:32.718Z,23.30
2022-10-03T20:37:25.373Z,23.35
2022-10-03T20:39:59.442Z,23.85
2022-10-03T20:42:32.512Z,21.10
2022-10-03T20:45:07.874Z,25.02
2022-10-03T20:47:52.513Z,28.42
2022-10-03T20:50:27.960Z,22.98
2022-10-03T20:53:01.362Z,19.40
2022-10-03T20:55:35.256Z,19.63
2022-10-03T20:58:28.742Z,29.10
2022-10-03T21:01:03.395Z,22.67
2022-10-03T21:03:42.404Z,22.52
2022-10-03T21:06:20.609Z,22.35
2022-10-03T21:08:50.359Z,20.60
2022-10-03T21:11:25.024Z,20.23
2022-10-03T21:13:58.996Z,24.40
2022-10-03T21:16:34.325Z,26.17
2022-10-03T21:19:06.176Z,21.65
2022-10-03T21:21:42.882Z,16.00
2022-10-03T21:24:17.642Z,21.80
2022-10-03T21:26:53.488Z,22.17
2022-10-03T21:29:32.387Z,18.95
2022-10-03T21:32:37.817Z,26.48
2022-10-03T21:35:21.702Z,19.85
2022-10-03T21:38:00.093Z,23.30
2022-10-03T21:41:00.953Z,21.92
2022-10-03T21:43:48.568Z,18.20
2022-10-03T21:46:29.900Z,16.95
2022-10-03T21:49:20.867Z,23.13
2022-10-03T21:52:22.533Z,21.58
2022-10-03T21:55:09.071Z,20.45
2022-10-03T21:57:57.618Z,19.65
2022-10-03T22:00:30.221Z,21.52
2022-10-03T22:03:10.245Z,16.05
2022-10-03T22:05:52.403Z,15.15
2022-10-03T22:08:25.039Z,17.48
2022-10-03T22:11:09.064Z,19.05
2022-10-03T22:13:42.086Z,18.75
2022-10-03T22:16:22.411Z,19.13
2022-10-03T22:19:21.187Z,18.75
2022-10-03T22:22:25.011Z,19.75
2022-10-03T22:25:10.174Z,16.17
2022-10-03T22:27:49.612Z,17.77
2022-10-03T22:30:22.422Z,18.05
2022-10-03T22:33:09.576Z,17.55
2022-10-03T22:35:50.842Z,18.73
2022-10-03T22:38:25.617Z,16.02
2022-10-03T22:40:56.995Z,23.40
2022-10-03T22:43:27.252Z,20.75
2022-10-03T22:45:58.232Z,22.67
2022-10-03T22:48:33.271Z,21.42
2022-10-03T22:51:06.686Z,22.55
2022-10-03T22:53:45.825Z,32.33
2022-10-03T22:56:48.257Z,31.42
2022-10-03T22:59:22.524Z,49.28
2022-10-03T23:01:54.606Z,43.88
2022-10-03T23:04:31.960Z,52.25
2022-10-03T23:10:11.369Z,38.42
2022-10-03T23:12:45.737Z,24.30
2022-10-03T23:15:17.962Z,21.70
2022-10-03T23:18:33.776Z,27.15
2022-10-03T23:21:08.694Z,24.60
2022-10-03T23:23:59.549Z,22.05
2022-10-03T23:27:30.619Z,32.33
2022-10-03T23:30:51.807Z,32.90
2022-10-03T23:33:53.257Z,35.03
2022-10-03T23:36:25.623Z,26.30
2022-10-03T23:39:01.370Z,23.52
2022-10-03T23:41:45.301Z,19.10
2022-10-03T23:44:50.133Z,27.88
2022-10-03T23:47:24.489Z,23.70
2022-10-03T23:49:55.350Z,17.35
2022-10-03T23:52:29.563Z,19.77
2022-10-03T23:55:04.031Z,23.02
2022-10-03T23:57:43.672Z,21.80
